createdAt,value
2018-12-27T00:00:30.852Z,2.70
2018-12-27T00:02:21.803Z,2.70
2018-12-27T00:07:27.367Z,2.80
2018-12-27T00:11:01.459Z,2.70
2018-12-27T00:12:51.208Z,2.70
2018-12-27T00:14:58.497Z,2.70
2018-12-27T00:17:17.125Z,2.70
2018-12-27T00:19:33.291Z,2.80
2018-12-27T00:21:49.455Z,2.80
2018-12-27T00:24:05.710Z,2.80
2018-12-27T00:26:24.746Z,2.70
2018-12-27T00:28:41.339Z,2.70
2018-12-27T00:33:32.535Z,2.70
2018-12-27T00:35:48.989Z,2.60
2018-12-27T00:38:07.810Z,2.70
2018-12-27T00:40:26.741Z,2.70
2018-12-27T00:42:43.251Z,2.80
2018-12-27T00:44:59.831Z,2.80
2018-12-27T00:47:16.605Z,2.80
2018-12-27T00:49:35.704Z,2.80
2018-12-27T00:51:52.483Z,2.80
2018-12-27T00:54:08.622Z,2.90
2018-12-27T00:58:58.457Z,2.90
2018-12-27T01:01:22.802Z,2.90
2018-12-27T01:03:40.219Z,2.90
2018-12-27T01:05:56.853Z,2.90
2018-12-27T01:08:15.537Z,3.00
2018-12-27T01:10:34.750Z,3.00
2018-12-27T01:12:54.306Z,3.10
2018-12-27T01:15:13.855Z,3.10
2018-12-27T01:17:30.080Z,3.10
2018-12-27T01:19:46.571Z,3.00
2018-12-27T01:22:02.803Z,3.00
2018-12-27T01:24:19.713Z,3.00
2018-12-27T01:26:38.675Z,3.00
2018-12-27T01:28:54.842Z,3.00
2018-12-27T01:31:11.064Z,2.90
2018-12-27T01:33:27.137Z,2.90
2018-12-27T01:35:46.561Z,3.00
2018-12-27T01:38:02.758Z,3.00
2018-12-27T01:40:19.273Z,3.00
2018-12-27T01:42:36.090Z,2.90
2018-12-27T01:44:54.927Z,2.80
2018-12-27T01:47:11.171Z,2.90
2018-12-27T01:49:27.867Z,2.90
2018-12-27T01:51:44.476Z,2.90
2018-12-27T01:54:01.013Z,2.90
2018-12-27T01:56:06.446Z,2.90
2018-12-27T01:58:30.573Z,2.90
2018-12-27T02:00:46.900Z,2.90
2018-12-27T02:03:03.451Z,2.90
2018-12-27T02:05:20.241Z,2.80
2018-12-27T02:07:36.548Z,2.80
2018-12-27T02:09:53.416Z,2.90
2018-12-27T02:12:09.709Z,2.80
2018-12-27T02:14:26.498Z,2.90
2018-12-27T02:16:48.692Z,2.80
2018-12-27T02:18:57.897Z,2.80
2018-12-27T02:23:47.601Z,3.10
2018-12-27T02:26:11.491Z,3.20
2018-12-27T02:30:42.463Z,3.30
2018-12-27T02:32:58.878Z,3.30
2018-12-27T02:35:15.683Z,3.20
2018-12-27T02:37:32.043Z,3.20
2018-12-27T02:39:48.347Z,3.20
2018-12-27T02:42:04.603Z,3.20
2018-12-27T02:44:21.264Z,3.30
2018-12-27T02:46:37.866Z,3.40
2018-12-27T02:48:54.492Z,3.50
2018-12-27T02:51:12.182Z,3.50
2018-12-27T02:53:28.400Z,3.50
2018-12-27T02:55:46.533Z,3.50
2018-12-27T02:58:02.694Z,3.50
2018-12-27T03:00:19.254Z,3.50
2018-12-27T03:02:35.902Z,3.50
2018-12-27T03:04:52.170Z,3.50
2018-12-27T03:07:08.906Z,3.50
2018-12-27T03:09:25.272Z,3.60
2018-12-27T03:11:41.736Z,3.60
2018-12-27T03:13:59.385Z,3.70
2018-12-27T03:16:16.140Z,3.70
2018-12-27T03:18:32.738Z,3.70
2018-12-27T03:20:50.190Z,3.50
2018-12-27T03:23:06.223Z,3.50
2018-12-27T03:25:22.852Z,3.50
2018-12-27T03:27:39.593Z,3.40
2018-12-27T03:32:23.860Z,3.50
2018-12-27T03:34:50.206Z,3.50
2018-12-27T03:37:06.659Z,3.60
2018-12-27T03:39:23.385Z,3.60
2018-12-27T03:41:39.689Z,3.50
2018-12-27T03:43:55.954Z,3.40
2018-12-27T03:46:12.060Z,3.40
2018-12-27T03:48:28.175Z,3.40
2018-12-27T03:50:46.267Z,3.40
2018-12-27T03:53:02.245Z,3.40
2018-12-27T03:55:18.700Z,3.30
2018-12-27T03:57:34.922Z,3.40
2018-12-27T03:59:51.237Z,3.40
2018-12-27T04:02:07.462Z,3.50
2018-12-27T04:04:24.030Z,3.50
2018-12-27T04:08:54.237Z,3.60
2018-12-27T04:11:10.926Z,3.70
2018-12-27T04:13:27.558Z,3.70
2018-12-27T04:15:32.423Z,3.80
2018-12-27T04:18:15.229Z,3.80
2018-12-27T04:20:31.400Z,3.90
2018-12-27T04:25:10.361Z,4.00
2018-12-27T04:27:27.054Z,4.00
2018-12-27T04:29:43.765Z,3.90
2018-12-27T04:32:01.675Z,3.90
2018-12-27T04:34:18.001Z,3.80
2018-12-27T04:36:34.339Z,3.90
2018-12-27T04:38:50.671Z,4.00
2018-12-27T04:41:06.864Z,4.00
2018-12-27T04:43:23.415Z,4.10
2018-12-27T04:45:40.285Z,4.10
2018-12-27T04:50:15.411Z,4.10
2018-12-27T04:52:31.773Z,4.10
2018-12-27T04:54:47.644Z,4.10
2018-12-27T04:57:03.708Z,4.20
2018-12-27T04:59:20.035Z,4.20
2018-12-27T05:04:18.047Z,4.10
2018-12-27T05:06:30.663Z,4.10
2018-12-27T05:08:46.999Z,4.20
2018-12-27T05:11:03.926Z,4.30
2018-12-27T05:13:20.683Z,4.30
2018-12-27T05:15:37.045Z,4.20
2018-12-27T05:20:12.981Z,4.20
2018-12-27T05:22:29.141Z,4.20
2018-12-27T05:24:45.516Z,4.10
2018-12-27T05:27:01.938Z,4.10
2018-12-27T05:29:18.815Z,4.10
2018-12-27T05:31:35.446Z,4.00
2018-12-27T05:33:56.089Z,3.90
2018-12-27T05:36:13.750Z,4.00
2018-12-27T05:38:32.676Z,3.90
2018-12-27T05:43:12.976Z,3.90
2018-12-27T05:46:00.218Z,3.90
2018-12-27T05:50:40.833Z,3.70
2018-12-27T05:53:25.312Z,3.70
2018-12-27T05:55:49.776Z,3.50
2018-12-27T06:01:45.265Z,3.40
2018-12-27T06:06:51.897Z,3.50
2018-12-27T06:09:10.791Z,3.50
2018-12-27T06:11:28.036Z,3.50
2018-12-27T06:13:50.044Z,3.50
2018-12-27T06:16:09.755Z,3.50
2018-12-27T06:18:31.065Z,3.60
2018-12-27T06:20:53.232Z,3.50
2018-12-27T06:23:10.176Z,3.30
2018-12-27T06:25:43.749Z,3.40
2018-12-27T06:27:51.991Z,3.40
2018-12-27T06:30:13.592Z,3.50
2018-12-27T06:32:57.000Z,3.50
2018-12-27T06:34:59.990Z,3.60
2018-12-27T06:37:36.584Z,3.50
2018-12-27T06:45:54.634Z,3.50
2018-12-27T06:48:13.338Z,3.50
2018-12-27T06:53:10.608Z,3.50
2018-12-27T06:55:38.263Z,3.60
2018-12-27T06:58:11.943Z,3.60
2018-12-27T07:00:42.978Z,3.60
2018-12-27T07:03:02.437Z,3.70
2018-12-27T07:05:27.601Z,3.80
2018-12-27T07:07:48.388Z,3.80
2018-12-27T07:10:35.378Z,3.80
2018-12-27T07:15:43.987Z,3.80
2018-12-27T07:18:04.128Z,3.70
2018-12-27T07:24:03.925Z,3.80
2018-12-27T07:25:52.731Z,3.70
2018-12-27T07:28:14.298Z,3.60
2018-12-27T07:30:36.141Z,3.60
2018-12-27T07:32:58.703Z,3.70
2018-12-27T07:35:20.116Z,3.70
2018-12-27T07:37:41.142Z,3.80
2018-12-27T07:40:09.232Z,3.70
2018-12-27T07:42:47.002Z,3.80
2018-12-27T07:44:56.478Z,3.80
2018-12-27T07:47:14.318Z,3.90
2018-12-27T07:49:34.854Z,3.90
2018-12-27T07:51:59.626Z,3.90
2018-12-27T07:57:16.457Z,3.90
2018-12-27T08:02:34.381Z,4.00
2018-12-27T08:05:20.027Z,3.90
2018-12-27T08:07:44.454Z,3.90
2018-12-27T08:09:45.339Z,3.90
2018-12-27T08:12:08.929Z,3.60
2018-12-27T08:14:28.924Z,3.50
2018-12-27T08:19:16.067Z,3.20
2018-12-27T08:21:38.112Z,3.10
2018-12-27T08:24:25.888Z,2.90
2018-12-27T08:29:22.987Z,3.50
2018-12-27T08:31:41.159Z,3.60
2018-12-27T08:34:32.059Z,3.60
2018-12-27T08:39:30.062Z,3.50
2018-12-27T08:48:03.659Z,3.90
2018-12-27T08:50:42.883Z,4.20
2018-12-27T08:53:09.893Z,4.40
2018-12-27T08:55:34.501Z,4.60
2018-12-27T08:57:56.056Z,4.30
2018-12-27T09:03:05.848Z,4.60
2018-12-27T09:05:26.752Z,4.70
2018-12-27T09:08:18.105Z,4.80
2018-12-27T09:13:18.597Z,4.90
2018-12-27T09:16:07.140Z,4.70
2018-12-27T09:24:07.424Z,4.80
2018-12-27T09:26:25.311Z,4.80
2018-12-27T09:28:47.262Z,5.00
2018-12-27T09:31:33.388Z,5.10
2018-12-27T09:36:29.825Z,5.10
2018-12-27T09:38:54.079Z,5.00
2018-12-27T09:43:59.769Z,4.70
2018-12-27T09:48:58.731Z,4.40
2018-12-27T09:51:42.436Z,4.30
2018-12-27T09:54:26.667Z,4.20
2018-12-27T09:59:44.859Z,4.20
2018-12-27T10:01:55.492Z,4.30
2018-12-27T10:04:48.985Z,4.30
2018-12-27T10:07:02.950Z,4.40
2018-12-27T10:09:14.396Z,4.50
2018-12-27T10:14:11.289Z,4.50
2018-12-27T10:16:49.347Z,4.40
2018-12-27T10:30:26.493Z,4.60
2018-12-27T10:32:49.358Z,4.50
2018-12-27T10:38:19.474Z,4.60
2018-12-27T10:41:01.400Z,4.80
2018-12-27T10:43:06.535Z,4.90
2018-12-27T10:48:30.688Z,5.20
2018-12-27T10:50:38.435Z,5.20
2018-12-27T10:53:27.192Z,5.10
2018-12-27T10:56:11.871Z,5.10
2018-12-27T10:58:34.102Z,5.00
2018-12-27T11:03:41.855Z,5.00
2018-12-27T11:06:02.579Z,5.00
2018-12-27T11:09:07.825Z,5.20
2018-12-27T11:13:17.416Z,5.40
2018-12-27T11:16:18.149Z,5.20
2018-12-27T11:18:41.939Z,4.90
2018-12-27T11:20:43.486Z,5.10
2018-12-27T11:23:37.986Z,5.20
2018-12-27T11:28:52.695Z,5.30
2018-12-27T11:34:02.453Z,5.10
2018-12-27T11:39:39.092Z,4.90
2018-12-27T11:45:35.175Z,4.90
2018-12-27T11:47:33.380Z,4.60
2018-12-27T11:52:48.502Z,4.60
2018-12-27T11:55:07.453Z,4.30
2018-12-27T11:57:25.718Z,4.20
2018-12-27T11:59:47.336Z,4.30
2018-12-27T12:02:30.895Z,4.40
2018-12-27T12:07:54.019Z,4.40
2018-12-27T12:10:14.602Z,4.40
2018-12-27T12:12:57.490Z,4.50
2018-12-27T12:14:54.567Z,4.50
2018-12-27T12:17:14.381Z,4.50
2018-12-27T12:21:52.059Z,4.40
2018-12-27T12:24:12.070Z,4.50
2018-12-27T12:26:56.482Z,4.40
2018-12-27T12:33:12.392Z,4.50
2018-12-27T12:35:03.591Z,4.50
2018-12-27T12:37:55.081Z,4.50
2018-12-27T12:39:55.740Z,4.40
2018-12-27T12:43:11.190Z,4.50
2018-12-27T12:45:03.335Z,4.60
2018-12-27T12:47:19.190Z,4.70
2018-12-27T12:49:35.958Z,4.70
2018-12-27T12:51:52.902Z,4.70
2018-12-27T12:54:28.830Z,4.60
2018-12-27T12:56:54.429Z,4.60
2018-12-27T12:59:02.031Z,4.50
2018-12-27T13:01:18.427Z,4.50
2018-12-27T13:03:34.751Z,4.50
2018-12-27T13:05:53.281Z,4.60
2018-12-27T13:08:13.079Z,4.50
2018-12-27T13:10:29.646Z,4.60
2018-12-27T13:12:45.974Z,4.70
2018-12-27T13:15:02.717Z,4.70
2018-12-27T13:17:20.827Z,4.80
2018-12-27T13:19:37.229Z,4.80
2018-12-27T13:21:54.953Z,4.90
2018-12-27T13:24:11.311Z,4.90
2018-12-27T13:26:27.678Z,4.90
2018-12-27T13:28:43.945Z,5.00
2018-12-27T13:31:00.127Z,4.90
2018-12-27T13:33:16.338Z,5.00
2018-12-27T13:35:32.505Z,4.90
2018-12-27T13:37:51.089Z,4.80
2018-12-27T13:40:07.275Z,4.80
2018-12-27T13:42:12.088Z,4.90
2018-12-27T13:44:35.908Z,4.90
2018-12-27T13:46:42.294Z,5.00
2018-12-27T13:49:25.096Z,4.90
2018-12-27T13:51:43.719Z,4.80
2018-12-27T13:54:02.453Z,4.90
2018-12-27T13:55:56.396Z,5.00
2018-12-27T13:58:01.621Z,5.20
2018-12-27T14:00:22.273Z,5.00
2018-12-27T14:02:38.743Z,5.10
2018-12-27T14:04:55.608Z,5.00
2018-12-27T14:07:14.453Z,5.00
2018-12-27T14:09:38.415Z,4.90
2018-12-27T14:12:02.379Z,4.90
2018-12-27T14:14:18.570Z,4.90
2018-12-27T14:16:38.420Z,4.90
2018-12-27T14:18:56.412Z,4.90
2018-12-27T14:21:12.760Z,4.80
2018-12-27T14:26:23.598Z,4.70
2018-12-27T14:28:39.791Z,4.70
2018-12-27T14:30:56.035Z,4.80
2018-12-27T14:33:18.164Z,4.70
2018-12-27T14:35:33.533Z,4.80
2018-12-27T14:37:50.306Z,4.80
2018-12-27T14:42:56.693Z,4.90
2018-12-27T14:45:14.413Z,5.00
2018-12-27T14:47:30.492Z,5.00
2018-12-27T14:49:46.947Z,5.00
2018-12-27T14:51:51.967Z,4.90
2018-12-27T14:54:15.849Z,4.90
2018-12-27T14:56:39.764Z,4.90
2018-12-27T14:58:51.974Z,4.60
2018-12-27T15:01:16.017Z,4.50
2018-12-27T15:03:34.820Z,4.50
2018-12-27T15:05:51.310Z,4.60
2018-12-27T15:08:08.030Z,4.60
2018-12-27T15:10:24.332Z,4.50
2018-12-27T15:12:30.715Z,4.60
2018-12-27T15:14:54.567Z,4.70
2018-12-27T15:17:18.439Z,4.70
2018-12-27T15:19:34.530Z,4.60
2018-12-27T15:21:52.401Z,4.60
2018-12-27T15:24:08.392Z,4.60
2018-12-27T15:26:29.547Z,4.60
2018-12-27T15:31:16.209Z,4.70
2018-12-27T15:33:32.420Z,4.70
2018-12-27T15:35:37.374Z,4.80
2018-12-27T15:38:13.402Z,4.80
2018-12-27T15:40:19.428Z,4.80
2018-12-27T15:42:35.819Z,4.70
2018-12-27T15:44:52.471Z,4.70
2018-12-27T15:47:09.075Z,4.60
2018-12-27T15:49:25.695Z,4.60
2018-12-27T15:51:48.512Z,4.60
2018-12-27T15:54:05.183Z,4.60
2018-12-27T15:56:23.728Z,4.70
2018-12-27T15:58:40.079Z,4.70
2018-12-27T16:00:56.770Z,4.70
2018-12-27T16:03:10.360Z,4.70
2018-12-27T16:05:29.242Z,4.90
2018-12-27T16:07:47.405Z,5.00
2018-12-27T16:10:05.323Z,5.00
2018-12-27T16:12:22.294Z,5.10
2018-12-27T16:14:39.962Z,5.00
2018-12-27T16:16:58.502Z,5.00
2018-12-27T16:19:14.733Z,5.00
2018-12-27T16:21:30.916Z,5.00
2018-12-27T16:23:48.686Z,4.90
2018-12-27T16:25:54.069Z,4.80
2018-12-27T16:28:18.176Z,4.70
2018-12-27T16:30:34.987Z,4.70
2018-12-27T16:37:44.823Z,4.50
2018-12-27T16:40:02.656Z,4.40
2018-12-27T16:42:46.846Z,4.40
2018-12-27T16:45:24.215Z,4.40
2018-12-27T16:47:29.600Z,4.40
2018-12-27T16:49:47.449Z,4.40
2018-12-27T16:52:04.292Z,4.40
2018-12-27T16:54:20.455Z,4.40
2018-12-27T16:56:43.519Z,4.40
2018-12-27T16:59:00.204Z,4.50
2018-12-27T17:01:16.438Z,4.40
2018-12-27T17:03:32.791Z,4.40
2018-12-27T17:05:49.636Z,4.50
2018-12-27T17:08:06.260Z,4.20
2018-12-27T17:10:22.551Z,4.00
2018-12-27T17:12:39.460Z,4.00
2018-12-27T17:15:03.777Z,3.90
2018-12-27T17:17:29.599Z,3.80
2018-12-27T17:19:53.386Z,3.80
2018-12-27T17:24:46.422Z,3.80
2018-12-27T17:27:02.855Z,3.80
2018-12-27T17:29:22.176Z,4.00
2018-12-27T17:31:38.428Z,4.10
2018-12-27T17:33:54.988Z,4.20
2018-12-27T17:36:15.300Z,4.20
2018-12-27T17:38:31.916Z,4.10
2018-12-27T17:40:54.116Z,4.10
2018-12-27T17:43:10.332Z,4.00
2018-12-27T17:45:29.170Z,4.00
2018-12-27T17:47:48.940Z,4.00
2018-12-27T17:50:05.109Z,4.00
2018-12-27T17:52:21.751Z,3.90
2018-12-27T17:54:41.255Z,3.90
2018-12-27T17:59:13.311Z,3.80
2018-12-27T18:01:29.271Z,3.80
2018-12-27T18:03:47.702Z,3.70
2018-12-27T18:06:04.320Z,3.70
2018-12-27T18:08:20.537Z,3.70
2018-12-27T18:10:37.530Z,3.70
2018-12-27T18:12:53.824Z,3.60
2018-12-27T18:15:19.717Z,3.50
2018-12-27T18:17:37.615Z,3.50
2018-12-27T18:19:54.307Z,3.60
2018-12-27T18:22:13.026Z,3.70
2018-12-27T18:24:31.458Z,3.60
2018-12-27T18:26:47.400Z,3.60
2018-12-27T18:28:52.283Z,3.60
2018-12-27T18:31:16.123Z,3.70
2018-12-27T18:33:40.055Z,3.70
2018-12-27T18:38:05.535Z,3.70
2018-12-27T18:40:12.924Z,3.70
2018-12-27T18:42:36.814Z,3.80
2018-12-27T18:44:53.601Z,3.80
2018-12-27T18:47:10.093Z,3.80
2018-12-27T18:49:26.508Z,3.80
2018-12-27T18:51:43.114Z,3.80
2018-12-27T18:56:16.557Z,3.70
2018-12-27T18:58:35.332Z,3.60
2018-12-27T19:00:41.332Z,3.60
2018-12-27T19:06:27.386Z,3.60
2018-12-27T19:08:46.552Z,3.60
2018-12-27T19:11:06.307Z,3.60
2018-12-27T19:13:26.897Z,3.60
2018-12-27T19:18:51.292Z,3.70
2018-12-27T19:24:18.720Z,3.60
2018-12-27T19:26:37.922Z,3.60
2018-12-27T19:37:28.861Z,3.50
2018-12-27T19:44:51.569Z,3.40
2018-12-27T19:47:12.048Z,3.30
2018-12-27T19:49:59.656Z,3.40
2018-12-27T19:52:24.234Z,3.30
2018-12-27T19:54:50.970Z,3.30
2018-12-27T20:00:02.177Z,3.40
2018-12-27T20:02:10.888Z,3.30
2018-12-27T20:10:25.095Z,3.30
2018-12-27T20:12:52.963Z,3.30
2018-12-27T20:15:26.828Z,3.20
2018-12-27T20:21:02.129Z,2.90
2018-12-27T20:23:40.636Z,3.10
2018-12-27T20:26:26.918Z,3.20
2018-12-27T20:28:45.955Z,3.20
2018-12-27T20:31:09.897Z,3.20
2018-12-27T20:33:48.323Z,3.20
2018-12-27T20:36:44.834Z,3.20
2018-12-27T20:38:36.387Z,3.20
2018-12-27T20:46:23.713Z,3.40
2018-12-27T20:51:02.439Z,3.20
2018-12-27T20:53:19.505Z,3.40
2018-12-27T20:55:53.984Z,3.40
2018-12-27T20:58:11.263Z,3.40
2018-12-27T21:00:50.724Z,3.20
2018-12-27T21:05:59.195Z,3.20
2018-12-27T21:13:39.636Z,3.40
2018-12-27T21:16:03.355Z,3.40
2018-12-27T21:19:06.213Z,3.40
2018-12-27T21:26:58.856Z,3.40
2018-12-27T21:29:42.721Z,3.40
2018-12-27T21:35:07.779Z,3.50
2018-12-27T21:40:17.114Z,3.50
2018-12-27T21:48:28.884Z,3.60
2018-12-27T21:53:33.199Z,3.50
2018-12-27T21:55:36.594Z,3.50
2018-12-27T22:09:03.941Z,3.90
2018-12-27T22:16:57.682Z,4.20
2018-12-27T22:20:07.686Z,4.30
2018-12-27T22:27:17.711Z,4.50
2018-12-27T22:30:34.251Z,4.70
2018-12-27T22:33:03.661Z,4.80
2018-12-27T22:37:51.496Z,4.90
2018-12-27T22:41:12.380Z,4.90
2018-12-27T22:45:48.900Z,4.70
2018-12-27T22:51:01.987Z,4.60
2018-12-27T22:53:23.097Z,4.50
2018-12-27T22:58:03.410Z,4.50
2018-12-27T23:03:20.575Z,4.30
2018-12-27T23:06:18.441Z,4.20
2018-12-27T23:11:16.870Z,4.30
2018-12-27T23:13:54.523Z,4.30
2018-12-27T23:23:58.605Z,4.20
2018-12-27T23:26:31.287Z,4.20
2018-12-27T23:31:33.242Z,4.30
2018-12-27T23:36:40.346Z,4.30
2018-12-27T23:44:33.242Z,4.10
2018-12-27T23:47:11.687Z,4.10
2018-12-27T23:49:32.896Z,4.10
2018-12-27T23:51:50.911Z,3.90
2018-12-27T23:54:11.192Z,4.00
2018-12-27T23:56:34.199Z,4.00
